createdAt,value
2023-12-14T00:01:47.663Z,12.06
2023-12-14T00:04:15.872Z,12.04
2023-12-14T00:06:43.966Z,12.01
2023-12-14T00:09:11.969Z,11.97
2023-12-14T00:11:40.534Z,11.95
2023-12-14T00:14:09.597Z,11.93
2023-12-14T00:16:37.811Z,11.90
2023-12-14T00:19:06.076Z,11.91
2023-12-14T00:21:34.208Z,11.91
2023-12-14T00:24:02.304Z,11.90
2023-12-14T00:26:30.445Z,11.88
2023-12-14T00:29:01.673Z,11.87
2023-12-14T00:31:30.557Z,11.90
2023-12-14T00:33:59.048Z,11.91
2023-12-14T00:36:27.238Z,11.90
2023-12-14T00:38:56.729Z,11.89
2023-12-14T00:41:24.871Z,11.94
2023-12-14T00:43:52.963Z,11.93
2023-12-14T00:46:21.025Z,11.93
2023-12-14T00:48:49.354Z,11.97
2023-12-14T00:51:17.527Z,12.04
2023-12-14T00:53:45.955Z,12.14
2023-12-14T00:56:14.210Z,12.19
2023-12-14T00:58:42.524Z,12.18
2023-12-14T01:01:10.725Z,12.17
2023-12-14T01:03:38.766Z,12.18
2023-12-14T01:06:08.341Z,12.20
2023-12-14T01:08:36.585Z,12.24
2023-12-14T01:11:04.923Z,12.29
2023-12-14T01:13:33.025Z,12.30
2023-12-14T01:16:01.045Z,12.30
2023-12-14T01:18:29.335Z,12.27
2023-12-14T01:20:57.468Z,12.22
2023-12-14T01:23:25.453Z,12.20
2023-12-14T01:25:53.572Z,12.19
2023-12-14T01:28:21.593Z,12.18
2023-12-14T01:30:49.940Z,12.19
2023-12-14T01:33:18.714Z,12.22
2023-12-14T01:35:46.885Z,12.23
2023-12-14T01:38:15.158Z,12.22
2023-12-14T01:40:43.451Z,12.19
2023-12-14T01:43:11.898Z,12.19
2023-12-14T01:45:40.372Z,12.20
2023-12-14T01:48:08.855Z,12.24
2023-12-14T01:50:36.956Z,12.29
2023-12-14T01:53:05.257Z,12.31
2023-12-14T01:55:33.491Z,12.36
2023-12-14T01:58:01.961Z,12.35
2023-12-14T02:01:10.635Z,12.40
2023-12-14T02:03:49.925Z,12.47
2023-12-14T02:06:18.166Z,12.45
2023-12-14T02:08:47.378Z,12.45
2023-12-14T02:11:15.747Z,12.44
2023-12-14T02:13:44.243Z,12.45
2023-12-14T02:16:12.302Z,12.48
2023-12-14T02:18:40.546Z,12.49
2023-12-14T02:21:08.588Z,12.49
2023-12-14T02:23:36.814Z,12.47
2023-12-14T02:26:04.862Z,12.46
2023-12-14T02:28:32.893Z,12.50
2023-12-14T02:31:01.072Z,12.50
2023-12-14T02:33:29.240Z,12.54
2023-12-14T02:35:57.304Z,12.56
2023-12-14T02:38:25.424Z,12.58
2023-12-14T02:40:54.041Z,12.58
2023-12-14T02:43:22.221Z,12.57
2023-12-14T02:45:50.910Z,12.54
2023-12-14T02:48:18.954Z,12.54
2023-12-14T02:50:47.502Z,12.53
2023-12-14T02:53:15.546Z,12.54
2023-12-14T02:55:44.422Z,12.53
2023-12-14T02:58:12.535Z,12.52
2023-12-14T03:00:40.802Z,12.50
2023-12-14T03:03:08.954Z,12.48
2023-12-14T03:05:37.741Z,12.47
2023-12-14T03:08:05.999Z,12.45
2023-12-14T03:10:34.141Z,12.42
2023-12-14T03:13:02.372Z,12.42
2023-12-14T03:15:30.669Z,12.41
2023-12-14T03:17:58.858Z,12.36
2023-12-14T03:20:27.229Z,12.33
2023-12-14T03:22:55.484Z,12.29
2023-12-14T03:25:23.672Z,12.30
2023-12-14T03:27:51.738Z,12.27
2023-12-14T03:30:19.917Z,12.22
2023-12-14T03:32:48.049Z,12.11
2023-12-14T03:35:16.249Z,11.96
2023-12-14T03:37:44.455Z,11.77
2023-12-14T03:40:12.546Z,11.66
2023-12-14T03:42:41.106Z,11.54
2023-12-14T03:45:09.501Z,11.43
2023-12-14T03:47:37.686Z,11.33
2023-12-14T03:50:06.515Z,11.20
2023-12-14T03:52:35.283Z,11.12
2023-12-14T03:55:03.805Z,11.03
2023-12-14T03:57:31.993Z,10.98
2023-12-14T04:00:00.070Z,10.94
2023-12-14T04:02:28.301Z,10.89
2023-12-14T04:04:56.459Z,10.85
2023-12-14T04:07:25.060Z,10.80
2023-12-14T04:09:53.154Z,10.76
2023-12-14T04:12:21.412Z,10.73
2023-12-14T04:14:49.487Z,10.67
2023-12-14T04:17:17.787Z,10.61
2023-12-14T04:19:45.906Z,10.52
2023-12-14T04:22:14.069Z,10.46
2023-12-14T04:24:42.226Z,10.42
2023-12-14T04:27:10.283Z,10.38
2023-12-14T04:29:38.334Z,10.34
2023-12-14T04:32:06.787Z,10.30
2023-12-14T04:34:34.930Z,10.29
2023-12-14T04:37:03.229Z,10.30
2023-12-14T04:39:31.636Z,10.31
2023-12-14T04:41:59.851Z,10.31
2023-12-14T04:44:28.054Z,10.30
2023-12-14T04:46:56.141Z,10.30
2023-12-14T04:49:24.288Z,10.27
2023-12-14T04:51:52.308Z,10.25
2023-12-14T04:54:21.554Z,10.24
2023-12-14T04:56:49.849Z,10.21
2023-12-14T04:59:18.467Z,10.17
2023-12-14T05:01:46.712Z,10.14
2023-12-14T05:04:14.891Z,10.08
2023-12-14T05:06:43.095Z,10.05
2023-12-14T05:09:12.711Z,10.04
2023-12-14T05:11:41.565Z,10.03
2023-12-14T05:14:09.862Z,10.02
2023-12-14T05:16:38.169Z,10.00
2023-12-14T05:19:06.456Z,10.01
2023-12-14T05:21:34.529Z,10.01
2023-12-14T05:24:02.596Z,9.97
2023-12-14T05:26:36.563Z,9.91
2023-12-14T05:29:04.781Z,9.83
2023-12-14T05:31:32.890Z,9.78
2023-12-14T05:34:01.007Z,9.75
2023-12-14T05:36:29.238Z,9.73
2023-12-14T05:38:58.967Z,9.71
2023-12-14T05:41:27.731Z,9.72
2023-12-14T05:43:55.866Z,9.74
2023-12-14T05:46:24.545Z,9.77
2023-12-14T05:48:53.368Z,9.79
2023-12-14T05:51:29.391Z,9.80
2023-12-14T05:53:58.497Z,9.82
2023-12-14T05:56:27.123Z,9.79
2023-12-14T05:58:57.527Z,9.80
2023-12-14T06:01:26.796Z,9.77
2023-12-14T06:03:55.189Z,9.74
2023-12-14T06:06:25.001Z,9.73
2023-12-14T06:08:58.825Z,9.73
2023-12-14T06:11:30.105Z,9.70
2023-12-14T06:14:01.120Z,9.67
2023-12-14T06:16:32.007Z,9.67
2023-12-14T06:19:03.357Z,9.70
2023-12-14T06:21:35.314Z,9.71
2023-12-14T06:24:04.775Z,9.71
2023-12-14T06:26:33.047Z,9.70
2023-12-14T06:29:08.365Z,9.67
2023-12-14T06:31:40.209Z,9.67
2023-12-14T06:34:08.623Z,9.67
2023-12-14T06:36:50.501Z,9.66
2023-12-14T06:39:22.368Z,9.65
2023-12-14T06:41:53.234Z,9.63
2023-12-14T06:44:23.400Z,9.62
2023-12-14T06:47:00.713Z,9.66
2023-12-14T06:49:30.044Z,9.71
2023-12-14T06:51:59.391Z,9.72
2023-12-14T06:55:10.926Z,9.69
2023-12-14T07:00:56.401Z,9.65
2023-12-14T07:04:17.632Z,9.64
2023-12-14T07:07:10.242Z,10.16
2023-12-14T07:10:12.521Z,10.83
2023-12-14T07:12:45.742Z,10.84
2023-12-14T07:15:15.192Z,10.75
2023-12-14T07:17:49.937Z,10.69
2023-12-14T07:20:26.055Z,10.61
2023-12-14T07:23:06.957Z,10.49
2023-12-14T07:25:42.768Z,10.39
2023-12-14T07:28:42.767Z,10.32
2023-12-14T07:31:34.003Z,10.28
2023-12-14T07:35:47.696Z,10.24
2023-12-14T07:37:48.055Z,10.23
2023-12-14T07:40:58.164Z,10.23
2023-12-14T07:44:02.843Z,10.25
2023-12-14T07:47:18.383Z,10.25
2023-12-14T07:50:24.982Z,10.20
2023-12-14T07:53:05.890Z,10.17
2023-12-14T07:55:57.987Z,10.16
2023-12-14T07:58:40.584Z,10.14
2023-12-14T08:01:08.849Z,10.60
2023-12-14T08:03:49.717Z,10.99
2023-12-14T08:15:29.667Z,10.89
2023-12-14T08:18:25.878Z,10.87
2023-12-14T08:23:03.081Z,10.82
2023-12-14T08:26:26.350Z,10.68
2023-12-14T08:29:28.447Z,10.59
2023-12-14T08:32:40.085Z,10.54
2023-12-14T08:35:42.075Z,10.53
2023-12-14T08:38:34.092Z,10.55
2023-12-14T08:41:29.053Z,10.54
2023-12-14T08:44:23.982Z,10.54
2023-12-14T08:47:25.305Z,10.58
2023-12-14T08:57:22.514Z,10.55
2023-12-14T09:05:42.365Z,10.47
2023-12-14T09:19:04.127Z,10.32
2023-12-14T09:27:43.472Z,10.15
2023-12-14T09:30:14.524Z,10.15
2023-12-14T09:32:54.751Z,10.13
2023-12-14T09:35:25.110Z,10.10
2023-12-14T09:38:10.885Z,10.11
2023-12-14T09:41:03.337Z,10.13
2023-12-14T09:43:55.470Z,10.13
2023-12-14T09:46:54.840Z,10.09
2023-12-14T09:49:36.861Z,10.07
2023-12-14T09:52:54.276Z,10.03
2023-12-14T09:56:28.109Z,9.98
2023-12-14T10:07:16.140Z,9.94
2023-12-14T10:10:36.696Z,9.89
2023-12-14T10:13:56.293Z,9.82
2023-12-14T10:16:34.771Z,9.72
2023-12-14T10:19:04.649Z,9.68
2023-12-14T10:21:36.306Z,9.63
2023-12-14T10:24:07.382Z,9.58
2023-12-14T10:26:41.978Z,9.55
2023-12-14T10:29:13.094Z,9.52
2023-12-14T10:31:45.990Z,9.53
2023-12-14T10:34:16.717Z,9.54
2023-12-14T10:36:50.524Z,9.54
2023-12-14T10:39:23.584Z,9.53
2023-12-14T10:42:08.106Z,9.48
2023-12-14T10:45:11.858Z,9.42
2023-12-14T10:47:50.007Z,9.37
2023-12-14T10:50:22.779Z,9.30
2023-12-14T10:52:57.884Z,9.25
2023-12-14T10:55:47.191Z,9.26
2023-12-14T10:58:23.801Z,9.27
2023-12-14T11:01:03.203Z,9.28
2023-12-14T11:03:44.181Z,9.29
2023-12-14T11:07:27.529Z,9.27
2023-12-14T11:10:51.833Z,9.24
2023-12-14T11:13:45.323Z,9.22
2023-12-14T11:20:06.299Z,9.21
2023-12-14T11:22:47.000Z,9.20
2023-12-14T11:26:31.332Z,9.23
2023-12-14T11:32:26.839Z,9.27
2023-12-14T11:35:45.047Z,9.24
2023-12-14T11:41:11.999Z,9.19
2023-12-14T11:43:43.517Z,9.19
2023-12-14T11:46:13.006Z,9.14
2023-12-14T11:48:50.278Z,9.11
2023-12-14T11:51:20.069Z,9.07
2023-12-14T11:53:50.945Z,9.07
2023-12-14T11:56:22.501Z,9.06
2023-12-14T11:58:51.317Z,9.07
2023-12-14T12:01:22.547Z,9.06
2023-12-14T12:03:51.820Z,9.06
2023-12-14T12:06:24.752Z,9.02
2023-12-14T12:08:55.739Z,8.98
2023-12-14T12:11:32.277Z,8.90
2023-12-14T12:14:11.859Z,8.78
2023-12-14T12:16:40.742Z,8.70
2023-12-14T12:19:08.843Z,8.61
2023-12-14T12:21:41.183Z,8.50
2023-12-14T12:24:22.614Z,8.45
2023-12-14T12:26:57.914Z,8.38
2023-12-14T12:29:35.120Z,8.34
2023-12-14T12:32:08.834Z,8.31
2023-12-14T12:34:49.020Z,8.31
2023-12-14T12:37:19.114Z,8.28
2023-12-14T12:39:48.218Z,8.29
2023-12-14T12:42:16.318Z,8.26
2023-12-14T12:44:44.523Z,8.27
2023-12-14T12:47:12.660Z,8.26
2023-12-14T12:49:42.101Z,8.25
2023-12-14T12:52:10.674Z,8.26
2023-12-14T12:54:38.984Z,8.28
2023-12-14T12:57:07.957Z,8.28
2023-12-14T12:59:38.392Z,8.30
2023-12-14T13:02:08.142Z,8.31
2023-12-14T13:04:40.670Z,8.34
2023-12-14T13:07:08.961Z,8.35
2023-12-14T13:09:38.547Z,8.37
2023-12-14T13:12:07.165Z,8.41
2023-12-14T13:14:38.225Z,8.44
2023-12-14T13:17:24.956Z,8.49
2023-12-14T13:19:57.486Z,8.54
2023-12-14T13:22:27.467Z,8.56
2023-12-14T13:25:01.202Z,8.56
2023-12-14T13:27:29.251Z,8.54
2023-12-14T13:29:58.029Z,8.50
2023-12-14T13:32:26.180Z,8.49
2023-12-14T13:34:54.451Z,8.45
2023-12-14T13:37:22.678Z,8.44
2023-12-14T13:39:51.401Z,8.47
2023-12-14T13:42:22.492Z,8.47
2023-12-14T13:44:53.742Z,8.44
2023-12-14T13:47:22.859Z,8.43
2023-12-14T13:49:51.625Z,8.42
2023-12-14T13:52:19.945Z,8.43
2023-12-14T13:54:48.238Z,8.39
2023-12-14T13:57:16.453Z,8.37
2023-12-14T13:59:44.699Z,8.36
2023-12-14T14:02:12.935Z,8.39
2023-12-14T14:04:42.105Z,8.38
2023-12-14T14:07:10.225Z,8.37
2023-12-14T14:09:39.082Z,8.37
2023-12-14T14:12:07.569Z,8.36
2023-12-14T14:14:35.790Z,8.36
2023-12-14T14:17:03.940Z,8.35
2023-12-14T14:19:32.361Z,8.36
2023-12-14T14:22:00.499Z,8.34
2023-12-14T14:24:28.737Z,8.31
2023-12-14T14:26:57.109Z,8.33
2023-12-14T14:29:25.743Z,8.35
2023-12-14T14:31:54.084Z,8.33
2023-12-14T14:34:25.453Z,8.30
2023-12-14T14:36:53.792Z,8.27
2023-12-14T14:39:22.266Z,8.24
2023-12-14T14:41:50.451Z,8.23
2023-12-14T14:44:18.939Z,8.21
2023-12-14T14:50:05.802Z,8.19
2023-12-14T14:52:35.523Z,8.19
2023-12-14T14:55:07.220Z,8.21
2023-12-14T14:57:35.344Z,8.22
2023-12-14T15:00:04.653Z,8.18
2023-12-14T15:02:33.535Z,8.15
2023-12-14T15:05:03.126Z,8.10
2023-12-14T15:07:31.984Z,8.09
2023-12-14T15:10:00.111Z,8.08
2023-12-14T15:12:28.355Z,8.05
2023-12-14T15:14:57.861Z,8.04
2023-12-14T15:17:26.201Z,8.05
2023-12-14T15:19:54.601Z,8.04
2023-12-14T15:22:22.669Z,8.06
2023-12-14T15:24:50.812Z,8.08
2023-12-14T15:27:19.056Z,8.06
2023-12-14T15:29:47.207Z,8.02
2023-12-14T15:32:16.002Z,7.94
2023-12-14T15:34:44.315Z,7.90
2023-12-14T15:37:12.566Z,7.86
2023-12-14T15:39:40.659Z,7.85
2023-12-14T15:42:08.864Z,7.85
2023-12-14T15:44:37.036Z,7.87
2023-12-14T15:47:05.373Z,7.85
2023-12-14T15:49:33.461Z,7.83
2023-12-14T15:52:01.489Z,7.79
2023-12-14T15:54:29.522Z,7.79
2023-12-14T15:56:59.663Z,7.77
2023-12-14T15:59:28.535Z,7.73
2023-12-14T16:01:56.688Z,7.71
2023-12-14T16:04:24.841Z,7.71
2023-12-14T16:06:52.976Z,7.71
2023-12-14T16:09:21.062Z,7.72
2023-12-14T16:11:49.233Z,7.72
2023-12-14T16:14:17.783Z,7.74
2023-12-14T16:16:45.862Z,7.73
2023-12-14T16:19:14.242Z,7.71
2023-12-14T16:21:42.483Z,7.71
2023-12-14T16:24:10.480Z,7.69
2023-12-14T16:26:42.768Z,7.71
2023-12-14T16:29:10.942Z,7.74
2023-12-14T16:31:43.408Z,7.75
2023-12-14T16:34:11.998Z,7.73
2023-12-14T16:36:40.322Z,7.76
2023-12-14T16:39:11.170Z,7.77
2023-12-14T16:41:39.356Z,7.75
2023-12-14T16:44:07.536Z,7.73
2023-12-14T16:46:35.553Z,7.73
2023-12-14T16:49:03.668Z,7.72
2023-12-14T16:51:31.899Z,7.68
2023-12-14T16:54:01.517Z,7.65
2023-12-14T16:56:32.639Z,7.63
2023-12-14T16:59:01.129Z,7.61
2023-12-14T17:01:29.475Z,7.58
2023-12-14T17:03:58.157Z,7.58
2023-12-14T17:06:26.291Z,7.56
2023-12-14T17:08:54.417Z,7.55
2023-12-14T17:11:22.826Z,7.53
2023-12-14T17:13:51.003Z,7.53
2023-12-14T17:16:21.125Z,7.54
2023-12-14T17:18:49.503Z,7.55
2023-12-14T17:21:24.809Z,7.58
2023-12-14T17:23:54.457Z,7.61
2023-12-14T17:26:26.705Z,7.59
2023-12-14T17:28:57.342Z,7.60
2023-12-14T17:31:26.576Z,7.61
2023-12-14T17:33:55.233Z,7.62
2023-12-14T17:36:23.457Z,7.60
2023-12-14T17:38:53.022Z,7.60
2023-12-14T17:41:22.224Z,7.59
2023-12-14T17:43:53.202Z,7.60
2023-12-14T17:46:23.071Z,7.62
2023-12-14T17:48:51.399Z,7.65
2023-12-14T17:51:19.539Z,7.69
2023-12-14T17:53:47.592Z,7.74
2023-12-14T17:56:17.101Z,7.78
2023-12-14T17:58:46.659Z,7.82
2023-12-14T18:01:15.508Z,7.81
2023-12-14T18:03:43.734Z,7.79
2023-12-14T18:06:11.747Z,7.75
2023-12-14T18:08:39.911Z,7.74
2023-12-14T18:11:07.949Z,7.73
2023-12-14T18:13:36.116Z,7.72
2023-12-14T18:16:04.587Z,7.72
2023-12-14T18:18:32.736Z,7.75
2023-12-14T18:21:00.919Z,7.76
2023-12-14T18:23:29.028Z,7.75
2023-12-14T18:25:57.117Z,7.74
2023-12-14T18:28:27.761Z,7.71
2023-12-14T18:30:55.853Z,7.69
2023-12-14T18:33:24.055Z,7.66
2023-12-14T18:35:52.150Z,7.65
2023-12-14T18:38:20.550Z,7.60
2023-12-14T18:40:48.953Z,7.61
2023-12-14T18:43:17.387Z,7.64
2023-12-14T18:45:45.718Z,7.66
2023-12-14T18:48:14.057Z,7.69
2023-12-14T18:50:42.657Z,7.68
2023-12-14T18:53:11.927Z,7.66
2023-12-14T18:55:40.351Z,7.64
2023-12-14T18:58:08.761Z,7.63
2023-12-14T19:00:37.895Z,7.61
2023-12-14T19:03:08.114Z,7.59
2023-12-14T19:05:37.603Z,7.58
2023-12-14T19:08:05.982Z,7.58
2023-12-14T19:10:34.422Z,7.58
2023-12-14T19:13:04.242Z,7.56
2023-12-14T19:15:32.553Z,7.55
2023-12-14T19:18:01.606Z,7.59
2023-12-14T19:20:30.005Z,7.62
2023-12-14T19:23:00.088Z,7.62
2023-12-14T19:25:28.149Z,7.60
2023-12-14T19:27:56.268Z,7.59
2023-12-14T19:30:24.346Z,7.59
2023-12-14T19:32:53.785Z,7.59
2023-12-14T19:35:22.305Z,7.58
2023-12-14T19:37:50.939Z,7.55
2023-12-14T19:40:19.311Z,7.51
2023-12-14T19:42:47.495Z,7.47
2023-12-14T19:45:15.789Z,7.43
2023-12-14T19:47:44.584Z,7.42
2023-12-14T19:50:13.604Z,7.40
2023-12-14T20:01:26.876Z,7.32
2023-12-14T20:03:40.042Z,7.29
2023-12-14T20:06:19.826Z,7.27
2023-12-14T20:08:50.458Z,7.23
2023-12-14T20:11:20.147Z,7.21
2023-12-14T20:13:48.499Z,7.19
2023-12-14T20:16:16.751Z,7.18
2023-12-14T20:18:44.950Z,7.21
2023-12-14T20:21:13.081Z,7.22
2023-12-14T20:23:41.865Z,7.24
2023-12-14T20:26:12.462Z,7.25
2023-12-14T20:28:40.474Z,7.25
2023-12-14T20:31:09.571Z,7.22
2023-12-14T20:33:37.715Z,7.15
2023-12-14T20:36:06.187Z,7.10
2023-12-14T20:38:34.315Z,7.06
2023-12-14T20:41:02.410Z,7.03
2023-12-14T20:43:31.586Z,7.00
2023-12-14T20:45:59.861Z,6.97
2023-12-14T20:48:28.353Z,6.95
2023-12-14T20:50:56.419Z,6.97
2023-12-14T20:53:24.683Z,6.97
2023-12-14T20:55:53.447Z,6.93
2023-12-14T20:58:21.543Z,6.92
2023-12-14T21:00:49.612Z,6.90
2023-12-14T21:03:17.739Z,6.90
2023-12-14T21:05:48.746Z,6.89
2023-12-14T21:08:17.914Z,6.87
2023-12-14T21:10:46.388Z,6.88
2023-12-14T21:13:14.755Z,6.92
2023-12-14T21:15:42.827Z,6.95
2023-12-14T21:18:11.080Z,6.96
2023-12-14T21:20:39.321Z,6.97
2023-12-14T21:23:08.737Z,6.98
2023-12-14T21:25:41.936Z,6.97
2023-12-14T21:28:10.084Z,6.93
2023-12-14T21:30:38.275Z,6.90
2023-12-14T21:33:06.423Z,6.87
2023-12-14T21:35:34.820Z,6.88
2023-12-14T21:38:02.946Z,6.89
2023-12-14T21:40:31.014Z,6.91
2023-12-14T21:42:59.035Z,6.95
2023-12-14T21:45:27.179Z,6.98
2023-12-14T21:47:56.278Z,7.01
2023-12-14T21:50:24.381Z,7.01
2023-12-14T21:52:52.573Z,7.02
2023-12-14T21:55:20.634Z,7.01
2023-12-14T21:57:48.741Z,6.98
2023-12-14T22:00:17.444Z,6.98
2023-12-14T22:02:45.911Z,6.99
2023-12-14T22:05:14.270Z,7.03
2023-12-14T22:07:42.698Z,7.05
2023-12-14T22:10:16.835Z,7.04
2023-12-14T22:12:46.118Z,7.01
2023-12-14T22:15:15.502Z,6.98
2023-12-14T22:17:43.917Z,6.92
2023-12-14T22:20:12.623Z,6.87
2023-12-14T22:22:40.840Z,6.83
2023-12-14T22:25:09.125Z,6.79
2023-12-14T22:27:37.403Z,6.75
2023-12-14T22:30:08.863Z,6.74
2023-12-14T22:32:37.185Z,6.74
2023-12-14T22:35:05.830Z,6.74
2023-12-14T22:37:34.077Z,6.72
2023-12-14T22:40:03.299Z,6.73
2023-12-14T22:42:31.322Z,6.75
2023-12-14T22:44:59.353Z,6.76
2023-12-14T22:47:27.671Z,6.72
2023-12-14T22:49:56.046Z,6.71
2023-12-14T22:52:24.268Z,6.69
2023-12-14T22:54:52.415Z,6.67
2023-12-14T22:57:20.495Z,6.65
2023-12-14T22:59:48.625Z,6.64
2023-12-14T23:02:17.021Z,6.65
2023-12-14T23:04:45.282Z,6.65
2023-12-14T23:07:13.288Z,6.64
2023-12-14T23:09:42.261Z,6.62
2023-12-14T23:12:11.608Z,6.62
2023-12-14T23:14:39.669Z,6.63
2023-12-14T23:17:07.815Z,6.63
2023-12-14T23:19:36.107Z,6.63
2023-12-14T23:22:04.278Z,6.63
2023-12-14T23:24:32.385Z,6.64
2023-12-14T23:27:00.533Z,6.63
2023-12-14T23:29:28.747Z,6.64
2023-12-14T23:31:56.958Z,6.65
2023-12-14T23:34:25.107Z,6.63
2023-12-14T23:36:53.495Z,6.61
2023-12-14T23:39:22.212Z,6.60
2023-12-14T23:41:50.350Z,6.60
2023-12-14T23:44:18.497Z,6.60
2023-12-14T23:46:46.881Z,6.60
2023-12-14T23:49:15.064Z,6.60
2023-12-14T23:51:43.173Z,6.59
2023-12-14T23:54:11.265Z,6.57
2023-12-14T23:56:40.410Z,6.55
2023-12-14T23:59:08.453Z,6.54
